Decker, Montana
Current Conditions -  °F | °C
As of 2:53 AM on Saturday 25 Oct 2014 (Local Time) from KSHR Reporting Station
Clear Clear  
Wind Chill: 28°   Ceiling: Unl
Heat Index: 33°   Visibility: 10mi
Dew Point: 28°   Wind: 6mph
Humidity: 82%   Direction: 340°NNW
Pressure: 30.12"   Gusts: NA
Location:  45.03°N, 106.84°W
Report Text: KSHR 250853Z AUTO 34005KT 10SM CLR 01/M02 A3012 RMK AO2 SLP195 T00061022 56007 TSNO
Loading
Personal Weather Stations






























Interactive Weather Map
Tropical Storm Tracking
New forecast layout! Learn more

10-Day Weather Forecast

Advertisements
Track Severe Weather on mobile